SWA2813 KMSY-KATL
Flight info
| Callsign | SWA2813 |
|---|---|
| Flight time | 1h 0m |
| Altitude | 39000 |
| Route | GARTS PAYTN SHYRE HOBTT3 |
| Aircraft | B737/M-SADE2E3GIJ4RWZ/LB1D1 |
Departure
| Time | 2026-05-07 04:38 |
|---|---|
| Airport | Louis Armstrong New Orleans International Airport (KMSY) |
Arrival
| Time | 2026-05-07 05:38 |
|---|---|
| Airport | Hartsfield Jackson Atlanta International Airport (KATL) |
| Time | Latitude | Longitude | Altitude | Speed | Heading |
|---|---|---|---|---|---|
| 2026-05-07 04:16 | 29.99444 | -90.25731 | 5 ft | 0 kts | 102° |
| 2026-05-07 04:29 | 29.99446 | -90.25741 | 6 ft | 3 kts | 92° |
| 2026-05-07 04:29 | 29.99444 | -90.25763 | 5 ft | 3 kts | 76° |
| 2026-05-07 04:29 | 29.99440 | -90.25785 | 6 ft | 3 kts | 86° |
| 2026-05-07 04:29 | 29.99441 | -90.25808 | 4 ft | 3 kts | 104° |
| 2026-05-07 04:30 | 29.99448 | -90.25828 | 4 ft | 3 kts | 133° |
| 2026-05-07 04:30 | 29.99459 | -90.25839 | 5 ft | 1 kts | 152° |
| 2026-05-07 04:30 | 29.99463 | -90.25841 | 5 ft | 1 kts | 152° |
| 2026-05-07 04:32 | 29.99460 | -90.25839 | 5 ft | 2 kts | 145° |
| 2026-05-07 04:33 | 29.99407 | -90.25831 | 3 ft | 13 kts | 196° |
| 2026-05-07 04:33 | 29.99316 | -90.25862 | 3 ft | 12 kts | 214° |
| 2026-05-07 04:33 | 29.99347 | -90.25938 | 2 ft | 13 kts | 306° |
| 2026-05-07 04:33 | 29.99385 | -90.26076 | 4 ft | 25 kts | 285° |
| 2026-05-07 04:34 | 29.99433 | -90.26279 | 6 ft | 26 kts | 285° |
| 2026-05-07 04:34 | 29.99480 | -90.26469 | 10 ft | 24 kts | 285° |
| 2026-05-07 04:34 | 29.99523 | -90.26647 | 10 ft | 23 kts | 286° |
| 2026-05-07 04:34 | 29.99564 | -90.26818 | 10 ft | 22 kts | 285° |
| 2026-05-07 04:35 | 29.99607 | -90.26993 | 12 ft | 24 kts | 285° |
| 2026-05-07 04:35 | 29.99656 | -90.27194 | 6 ft | 27 kts | 286° |
| 2026-05-07 04:35 | 29.99705 | -90.27401 | 4 ft | 26 kts | 285° |
| 2026-05-07 04:35 | 29.99749 | -90.27589 | 4 ft | 14 kts | 277° |
| 2026-05-07 04:36 | 29.99702 | -90.27668 | 2 ft | 13 kts | 201° |
| 2026-05-07 04:36 | 29.99642 | -90.27690 | 0 ft | 0 kts | 196° |
| 2026-05-07 04:36 | 29.99638 | -90.27691 | 0 ft | 5 kts | 196° |
| 2026-05-07 04:37 | 29.99577 | -90.27705 | -1 ft | 10 kts | 172° |
| 2026-05-07 04:37 | 29.99523 | -90.27591 | 0 ft | 32 kts | 105° |
| 2026-05-07 04:37 | 29.99394 | -90.27061 | 7 ft | 103 kts | 105° |
| 2026-05-07 04:37 | 29.99148 | -90.26040 | 17 ft | 158 kts | 105° |
| 2026-05-07 04:38 | 29.98850 | -90.24796 | 664 ft | 156 kts | 108° |
| 2026-05-07 04:38 | 29.98653 | -90.23552 | 1376 ft | 161 kts | 106° |
| 2026-05-07 04:38 | 29.98505 | -90.22172 | 1749 ft | 190 kts | 102° |
| 2026-05-07 04:38 | 29.98783 | -90.20538 | 2015 ft | 233 kts | 68° |
| 2026-05-07 04:39 | 29.99702 | -90.18852 | 2331 ft | 259 kts | 57° |
| 2026-05-07 04:39 | 30.00807 | -90.17168 | 2889 ft | 272 kts | 53° |
| 2026-05-07 04:39 | 30.02019 | -90.15378 | 3445 ft | 287 kts | 53° |
| 2026-05-07 04:39 | 30.03258 | -90.13553 | 4283 ft | 291 kts | 52° |
| 2026-05-07 04:40 | 30.04523 | -90.11679 | 5023 ft | 300 kts | 52° |
| 2026-05-07 04:40 | 30.05790 | -90.09788 | 5878 ft | 302 kts | 52° |
| 2026-05-07 04:40 | 30.07084 | -90.07848 | 6709 ft | 307 kts | 52° |
| 2026-05-07 04:40 | 30.08392 | -90.05877 | 7551 ft | 310 kts | 52° |
| 2026-05-07 04:41 | 30.09705 | -90.03891 | 8492 ft | 312 kts | 52° |
| 2026-05-07 04:41 | 30.11027 | -90.01888 | 9460 ft | 315 kts | 52° |
| 2026-05-07 04:41 | 30.12358 | -89.99866 | 10339 ft | 320 kts | 52° |
| 2026-05-07 04:41 | 30.13753 | -89.97746 | 10731 ft | 343 kts | 52° |
| 2026-05-07 04:42 | 30.15226 | -89.95504 | 11291 ft | 356 kts | 51° |
| 2026-05-07 04:42 | 30.16737 | -89.93201 | 12067 ft | 362 kts | 51° |
| 2026-05-07 04:42 | 30.18265 | -89.90870 | 12860 ft | 367 kts | 51° |
| 2026-05-07 04:42 | 30.19821 | -89.88493 | 13638 ft | 373 kts | 51° |
| 2026-05-07 04:43 | 30.21381 | -89.86109 | 14352 ft | 378 kts | 50° |
| 2026-05-07 04:43 | 30.22980 | -89.83665 | 15105 ft | 382 kts | 50° |
| 2026-05-07 04:43 | 30.24596 | -89.81192 | 15860 ft | 387 kts | 50° |
| 2026-05-07 04:43 | 30.26228 | -89.78694 | 16626 ft | 391 kts | 49° |
| 2026-05-07 04:44 | 30.27879 | -89.76165 | 17386 ft | 396 kts | 49° |
| 2026-05-07 04:44 | 30.29554 | -89.73600 | 18114 ft | 402 kts | 49° |
| 2026-05-07 04:44 | 30.31250 | -89.70999 | 18770 ft | 406 kts | 48° |
| 2026-05-07 04:44 | 30.32961 | -89.68373 | 19444 ft | 410 kts | 48° |
| 2026-05-07 04:45 | 30.34667 | -89.65753 | 20108 ft | 414 kts | 48° |
| 2026-05-07 04:45 | 30.36410 | -89.63075 | 20774 ft | 418 kts | 47° |
| 2026-05-07 04:45 | 30.38167 | -89.60373 | 21432 ft | 422 kts | 47° |
| 2026-05-07 04:45 | 30.39946 | -89.57636 | 22081 ft | 426 kts | 47° |
| 2026-05-07 04:46 | 30.41739 | -89.54875 | 22714 ft | 430 kts | 47° |
| 2026-05-07 04:46 | 30.43549 | -89.52087 | 23339 ft | 434 kts | 47° |
| 2026-05-07 04:46 | 30.45373 | -89.49274 | 23864 ft | 439 kts | 46° |
| 2026-05-07 04:46 | 30.47215 | -89.46433 | 24368 ft | 442 kts | 46° |
| 2026-05-07 04:47 | 30.49074 | -89.43561 | 24873 ft | 446 kts | 46° |
| 2026-05-07 04:47 | 30.50923 | -89.40704 | 25361 ft | 450 kts | 46° |
| 2026-05-07 04:47 | 30.52814 | -89.37780 | 25861 ft | 454 kts | 46° |
| 2026-05-07 04:47 | 30.54719 | -89.34831 | 26351 ft | 458 kts | 46° |
| 2026-05-07 04:48 | 30.56641 | -89.31854 | 26826 ft | 462 kts | 46° |
| 2026-05-07 04:48 | 30.58575 | -89.28857 | 27291 ft | 466 kts | 46° |
| 2026-05-07 04:48 | 30.60524 | -89.25834 | 27741 ft | 470 kts | 46° |
| 2026-05-07 04:48 | 30.62492 | -89.22778 | 28190 ft | 473 kts | 46° |
| 2026-05-07 04:49 | 30.64474 | -89.19699 | 28629 ft | 477 kts | 46° |
| 2026-05-07 04:49 | 30.66469 | -89.16598 | 29055 ft | 481 kts | 46° |
| 2026-05-07 04:49 | 30.68481 | -89.13468 | 29471 ft | 485 kts | 46° |
| 2026-05-07 04:49 | 30.70506 | -89.10313 | 29876 ft | 489 kts | 46° |
| 2026-05-07 04:50 | 30.72546 | -89.07135 | 30242 ft | 492 kts | 46° |
| 2026-05-07 04:50 | 30.74600 | -89.03930 | 30596 ft | 495 kts | 46° |
| 2026-05-07 04:50 | 30.76634 | -89.00753 | 30976 ft | 497 kts | 46° |
| 2026-05-07 04:50 | 30.78702 | -88.97519 | 31332 ft | 499 kts | 46° |
| 2026-05-07 04:51 | 30.80784 | -88.94264 | 31677 ft | 501 kts | 46° |
| 2026-05-07 04:51 | 30.82869 | -88.91001 | 32013 ft | 504 kts | 46° |
| 2026-05-07 04:51 | 30.84967 | -88.87714 | 32335 ft | 506 kts | 46° |
| 2026-05-07 04:51 | 30.87081 | -88.84402 | 32655 ft | 509 kts | 46° |
| 2026-05-07 04:52 | 30.89169 | -88.81126 | 32970 ft | 511 kts | 46° |
| 2026-05-07 04:52 | 30.91291 | -88.77793 | 33368 ft | 511 kts | 46° |
| 2026-05-07 04:52 | 30.93404 | -88.74468 | 33861 ft | 509 kts | 46° |
| 2026-05-07 04:52 | 30.95508 | -88.71154 | 34308 ft | 507 kts | 46° |
| 2026-05-07 04:53 | 30.97607 | -88.67849 | 34695 ft | 506 kts | 46° |
| 2026-05-07 04:53 | 30.99699 | -88.64553 | 35054 ft | 506 kts | 46° |
| 2026-05-07 04:53 | 31.01793 | -88.61254 | 35423 ft | 505 kts | 46° |
| 2026-05-07 04:53 | 31.03886 | -88.57951 | 35799 ft | 504 kts | 46° |
| 2026-05-07 04:54 | 31.05944 | -88.54699 | 36157 ft | 503 kts | 46° |
| 2026-05-07 04:54 | 31.08025 | -88.51411 | 36506 ft | 503 kts | 46° |
| 2026-05-07 04:54 | 31.10104 | -88.48121 | 36845 ft | 502 kts | 46° |
| 2026-05-07 04:54 | 31.12165 | -88.44830 | 37191 ft | 502 kts | 47° |
| 2026-05-07 04:55 | 31.14214 | -88.41529 | 37511 ft | 502 kts | 47° |
| 2026-05-07 04:55 | 31.15566 | -88.39342 | 37711 ft | 502 kts | 47° |
| 2026-05-07 04:55 | 31.17611 | -88.36031 | 38046 ft | 501 kts | 47° |
| 2026-05-07 04:55 | 31.19649 | -88.32730 | 38330 ft | 501 kts | 47° |
| 2026-05-07 04:56 | 31.21695 | -88.29419 | 38603 ft | 501 kts | 47° |
| 2026-05-07 04:56 | 31.23737 | -88.26114 | 38868 ft | 500 kts | 47° |
| 2026-05-07 04:56 | 31.25749 | -88.22855 | 38993 ft | 503 kts | 47° |
| 2026-05-07 04:56 | 31.27820 | -88.19506 | 38988 ft | 508 kts | 47° |
| 2026-05-07 04:57 | 31.32001 | -88.12729 | 38994 ft | 517 kts | 47° |
| 2026-05-07 04:57 | 31.36207 | -88.05885 | 38987 ft | 518 kts | 47° |
| 2026-05-07 04:58 | 31.40395 | -87.99057 | 38981 ft | 519 kts | 47° |
| 2026-05-07 04:58 | 31.44613 | -87.92175 | 38973 ft | 519 kts | 47° |
| 2026-05-07 04:59 | 31.48816 | -87.85288 | 38972 ft | 518 kts | 47° |
| 2026-05-07 04:59 | 31.52959 | -87.78423 | 38981 ft | 518 kts | 47° |
| 2026-05-07 05:00 | 31.57116 | -87.71523 | 38973 ft | 517 kts | 47° |
| 2026-05-07 05:00 | 31.61268 | -87.64618 | 38975 ft | 516 kts | 47° |
| 2026-05-07 05:01 | 31.65399 | -87.57734 | 38977 ft | 515 kts | 47° |
| 2026-05-07 05:01 | 31.69498 | -87.50894 | 38980 ft | 514 kts | 47° |
| 2026-05-07 05:02 | 31.73612 | -87.44014 | 38979 ft | 514 kts | 47° |
| 2026-05-07 05:02 | 31.77722 | -87.37130 | 38975 ft | 514 kts | 47° |
| 2026-05-07 05:03 | 31.81827 | -87.30243 | 38970 ft | 514 kts | 47° |
| 2026-05-07 05:03 | 31.85899 | -87.23398 | 38975 ft | 513 kts | 47° |
| 2026-05-07 05:04 | 31.89995 | -87.16499 | 38969 ft | 513 kts | 47° |
| 2026-05-07 05:04 | 31.94086 | -87.09598 | 38963 ft | 514 kts | 47° |
| 2026-05-07 05:05 | 31.98145 | -87.02736 | 38974 ft | 514 kts | 47° |
| 2026-05-07 05:05 | 32.02233 | -86.95815 | 38972 ft | 514 kts | 47° |
| 2026-05-07 05:06 | 32.06317 | -86.88889 | 38965 ft | 515 kts | 47° |
| 2026-05-07 05:06 | 32.10404 | -86.81943 | 38964 ft | 515 kts | 47° |
| 2026-05-07 05:07 | 32.14488 | -86.74988 | 38959 ft | 516 kts | 47° |
| 2026-05-07 05:07 | 32.18572 | -86.68022 | 38962 ft | 516 kts | 47° |
| 2026-05-07 05:08 | 32.22653 | -86.61048 | 38975 ft | 516 kts | 47° |
| 2026-05-07 05:08 | 32.26707 | -86.54107 | 38974 ft | 516 kts | 47° |
| 2026-05-07 05:09 | 32.30781 | -86.47120 | 38986 ft | 516 kts | 47° |
| 2026-05-07 05:09 | 32.34866 | -86.40114 | 38171 ft | 522 kts | 47° |
| 2026-05-07 05:10 | 32.36918 | -86.36594 | 37550 ft | 518 kts | 47° |
| 2026-05-07 05:10 | 32.38963 | -86.33079 | 36824 ft | 518 kts | 47° |
| 2026-05-07 05:10 | 32.40990 | -86.29591 | 36416 ft | 511 kts | 47° |
| 2026-05-07 05:10 | 32.43001 | -86.26128 | 35891 ft | 507 kts | 47° |
| 2026-05-07 05:11 | 32.44990 | -86.22691 | 35433 ft | 503 kts | 47° |
| 2026-05-07 05:11 | 32.46929 | -86.19331 | 34953 ft | 499 kts | 47° |
| 2026-05-07 05:11 | 32.48881 | -86.15943 | 34466 ft | 496 kts | 47° |
| 2026-05-07 05:11 | 32.50821 | -86.12575 | 33975 ft | 494 kts | 48° |
| 2026-05-07 05:12 | 32.52758 | -86.09209 | 33421 ft | 491 kts | 48° |
| 2026-05-07 05:12 | 32.54678 | -86.05873 | 32914 ft | 488 kts | 48° |
| 2026-05-07 05:12 | 32.56587 | -86.02550 | 32421 ft | 484 kts | 48° |
| 2026-05-07 05:12 | 32.58478 | -85.99257 | 31941 ft | 481 kts | 48° |
| 2026-05-07 05:13 | 32.60334 | -85.96028 | 31486 ft | 477 kts | 48° |
| 2026-05-07 05:13 | 32.62201 | -85.92779 | 31027 ft | 474 kts | 48° |
| 2026-05-07 05:13 | 32.64058 | -85.89546 | 30567 ft | 472 kts | 48° |
| 2026-05-07 05:13 | 32.65902 | -85.86334 | 30109 ft | 469 kts | 48° |
| 2026-05-07 05:14 | 32.67733 | -85.83142 | 29591 ft | 466 kts | 48° |
| 2026-05-07 05:14 | 32.69553 | -85.79963 | 29067 ft | 462 kts | 48° |
| 2026-05-07 05:14 | 32.71335 | -85.76850 | 28592 ft | 458 kts | 48° |
| 2026-05-07 05:14 | 32.73115 | -85.73735 | 28098 ft | 454 kts | 48° |
| 2026-05-07 05:15 | 32.74879 | -85.70647 | 27624 ft | 450 kts | 48° |
| 2026-05-07 05:15 | 32.76632 | -85.67577 | 27143 ft | 447 kts | 48° |
| 2026-05-07 05:15 | 32.78371 | -85.64530 | 26667 ft | 444 kts | 48° |
| 2026-05-07 05:15 | 32.80096 | -85.61503 | 26190 ft | 440 kts | 49° |
| 2026-05-07 05:16 | 32.81807 | -85.58500 | 25725 ft | 437 kts | 49° |
| 2026-05-07 05:16 | 32.83506 | -85.55514 | 25252 ft | 434 kts | 49° |
| 2026-05-07 05:16 | 32.85192 | -85.52550 | 24785 ft | 431 kts | 49° |
| 2026-05-07 05:16 | 32.86867 | -85.49602 | 24313 ft | 429 kts | 49° |
| 2026-05-07 05:17 | 32.88532 | -85.46669 | 23847 ft | 426 kts | 49° |
| 2026-05-07 05:17 | 32.90190 | -85.43748 | 23334 ft | 425 kts | 49° |
| 2026-05-07 05:17 | 32.91837 | -85.40843 | 22801 ft | 422 kts | 49° |
| 2026-05-07 05:17 | 32.93470 | -85.37958 | 22314 ft | 418 kts | 49° |
| 2026-05-07 05:18 | 32.95069 | -85.35132 | 21862 ft | 414 kts | 49° |
| 2026-05-07 05:18 | 32.96672 | -85.32297 | 21386 ft | 411 kts | 49° |
| 2026-05-07 05:18 | 32.98260 | -85.29487 | 20923 ft | 408 kts | 49° |
| 2026-05-07 05:18 | 32.99838 | -85.26695 | 20467 ft | 405 kts | 49° |
| 2026-05-07 05:19 | 33.01403 | -85.23922 | 20020 ft | 402 kts | 49° |
| 2026-05-07 05:19 | 33.03002 | -85.21211 | 19572 ft | 395 kts | 44° |
| 2026-05-07 05:19 | 33.04786 | -85.18761 | 19163 ft | 388 kts | 39° |
| 2026-05-07 05:19 | 33.06642 | -85.16440 | 18717 ft | 385 kts | 38° |
| 2026-05-07 05:20 | 33.08498 | -85.14150 | 18252 ft | 383 kts | 39° |
| 2026-05-07 05:20 | 33.10336 | -85.11848 | 17732 ft | 382 kts | 40° |
| 2026-05-07 05:20 | 33.12122 | -85.09571 | 17242 ft | 379 kts | 40° |
| 2026-05-07 05:20 | 33.13903 | -85.07271 | 16775 ft | 376 kts | 41° |
| 2026-05-07 05:21 | 33.15672 | -85.04974 | 16332 ft | 372 kts | 41° |
| 2026-05-07 05:21 | 33.19145 | -85.00455 | 15430 ft | 365 kts | 41° |
| 2026-05-07 05:21 | 33.20852 | -84.98233 | 15010 ft | 361 kts | 42° |
| 2026-05-07 05:22 | 33.22545 | -84.96031 | 14587 ft | 357 kts | 42° |
| 2026-05-07 05:22 | 33.24222 | -84.93847 | 14162 ft | 354 kts | 42° |
| 2026-05-07 05:22 | 33.25857 | -84.91716 | 13733 ft | 351 kts | 43° |
| 2026-05-07 05:22 | 33.27506 | -84.89567 | 13255 ft | 348 kts | 43° |
| 2026-05-07 05:23 | 33.29135 | -84.87441 | 12789 ft | 345 kts | 43° |
| 2026-05-07 05:23 | 33.30754 | -84.85328 | 12338 ft | 343 kts | 43° |
| 2026-05-07 05:23 | 33.32476 | -84.83419 | 11966 ft | 330 kts | 27° |
| 2026-05-07 05:23 | 33.34435 | -84.82110 | 11851 ft | 318 kts | 22° |
| 2026-05-07 05:24 | 33.36406 | -84.80911 | 11694 ft | 316 kts | 21° |
| 2026-05-07 05:24 | 33.38358 | -84.79746 | 11548 ft | 319 kts | 21° |
| 2026-05-07 05:24 | 33.40352 | -84.78550 | 11399 ft | 322 kts | 21° |
| 2026-05-07 05:24 | 33.42347 | -84.77341 | 11234 ft | 320 kts | 21° |
| 2026-05-07 05:25 | 33.44315 | -84.76137 | 11073 ft | 316 kts | 22° |
| 2026-05-07 05:25 | 33.46259 | -84.74941 | 10916 ft | 312 kts | 22° |
| 2026-05-07 05:25 | 33.48185 | -84.73752 | 10762 ft | 311 kts | 22° |
| 2026-05-07 05:25 | 33.50105 | -84.72566 | 10596 ft | 311 kts | 22° |
| 2026-05-07 05:26 | 33.52031 | -84.71374 | 10450 ft | 311 kts | 22° |
| 2026-05-07 05:26 | 33.53952 | -84.70185 | 10302 ft | 311 kts | 22° |
| 2026-05-07 05:26 | 33.55874 | -84.68994 | 10142 ft | 311 kts | 22° |
| 2026-05-07 05:26 | 33.57798 | -84.67800 | 10006 ft | 311 kts | 22° |
| 2026-05-07 05:27 | 33.59723 | -84.66605 | 9867 ft | 311 kts | 22° |
| 2026-05-07 05:27 | 33.61650 | -84.65408 | 9697 ft | 312 kts | 22° |
| 2026-05-07 05:27 | 33.63578 | -84.64208 | 9541 ft | 312 kts | 22° |
| 2026-05-07 05:27 | 33.65500 | -84.63013 | 9380 ft | 312 kts | 22° |
| 2026-05-07 05:28 | 33.67426 | -84.61815 | 9240 ft | 311 kts | 22° |
| 2026-05-07 05:28 | 33.69347 | -84.60620 | 9095 ft | 311 kts | 23° |
| 2026-05-07 05:28 | 33.71219 | -84.59374 | 8941 ft | 313 kts | 33° |
| 2026-05-07 05:28 | 33.72684 | -84.57407 | 8768 ft | 320 kts | 61° |
| 2026-05-07 05:29 | 33.73335 | -84.54867 | 8629 ft | 320 kts | 86° |
| 2026-05-07 05:29 | 33.73369 | -84.52209 | 8512 ft | 318 kts | 92° |
| 2026-05-07 05:29 | 33.73333 | -84.49553 | 8348 ft | 318 kts | 92° |
| 2026-05-07 05:29 | 33.73309 | -84.46897 | 8193 ft | 318 kts | 92° |
| 2026-05-07 05:30 | 33.73297 | -84.44243 | 8046 ft | 317 kts | 91° |
| 2026-05-07 05:30 | 33.73294 | -84.41589 | 7894 ft | 317 kts | 92° |
| 2026-05-07 05:30 | 33.73294 | -84.38971 | 7753 ft | 308 kts | 92° |
| 2026-05-07 05:30 | 33.73296 | -84.36474 | 7604 ft | 297 kts | 91° |
| 2026-05-07 05:31 | 33.73297 | -84.34025 | 7463 ft | 287 kts | 92° |
| 2026-05-07 05:31 | 33.73297 | -84.31690 | 7355 ft | 271 kts | 92° |
| 2026-05-07 05:31 | 33.73297 | -84.29458 | 7233 ft | 264 kts | 92° |
| 2026-05-07 05:31 | 33.73299 | -84.27261 | 7100 ft | 262 kts | 93° |
| 2026-05-07 05:32 | 33.73301 | -84.25079 | 6957 ft | 261 kts | 93° |
| 2026-05-07 05:32 | 33.73302 | -84.22883 | 6850 ft | 264 kts | 92° |
| 2026-05-07 05:32 | 33.73031 | -84.20743 | 6713 ft | 252 kts | 122° |
| 2026-05-07 05:32 | 33.71956 | -84.19302 | 6631 ft | 217 kts | 156° |
| 2026-05-07 05:33 | 33.70671 | -84.18668 | 6485 ft | 192 kts | 176° |
| 2026-05-07 05:33 | 33.69372 | -84.18517 | 6117 ft | 183 kts | 189° |
| 2026-05-07 05:33 | 33.68138 | -84.18788 | 5504 ft | 184 kts | 205° |
| 2026-05-07 05:33 | 33.66955 | -84.19407 | 4816 ft | 186 kts | 208° |
| 2026-05-07 05:34 | 33.65858 | -84.20185 | 4297 ft | 176 kts | 227° |
| 2026-05-07 05:34 | 33.65207 | -84.21327 | 4103 ft | 161 kts | 244° |
| 2026-05-07 05:34 | 33.64972 | -84.22657 | 3931 ft | 171 kts | 264° |
| 2026-05-07 05:34 | 33.64966 | -84.24109 | 3704 ft | 177 kts | 264° |
| 2026-05-07 05:35 | 33.64961 | -84.25593 | 3462 ft | 177 kts | 263° |
| 2026-05-07 05:35 | 33.64959 | -84.27072 | 3230 ft | 178 kts | 264° |
| 2026-05-07 05:35 | 33.64959 | -84.28557 | 3015 ft | 178 kts | 263° |
| 2026-05-07 05:35 | 33.64960 | -84.30022 | 2759 ft | 173 kts | 264° |
| 2026-05-07 05:36 | 33.64960 | -84.31416 | 2530 ft | 163 kts | 263° |
| 2026-05-07 05:36 | 33.64963 | -84.32689 | 2330 ft | 145 kts | 262° |
| 2026-05-07 05:36 | 33.64964 | -84.33833 | 2150 ft | 131 kts | 262° |
| 2026-05-07 05:36 | 33.64965 | -84.34906 | 1999 ft | 128 kts | 262° |
| 2026-05-07 05:37 | 33.64962 | -84.35997 | 1809 ft | 133 kts | 264° |
| 2026-05-07 05:37 | 33.64958 | -84.37124 | 1652 ft | 137 kts | 265° |
| 2026-05-07 05:37 | 33.64959 | -84.38269 | 1461 ft | 136 kts | 268° |
| 2026-05-07 05:37 | 33.64958 | -84.39387 | 1280 ft | 133 kts | 268° |
| 2026-05-07 05:38 | 33.64951 | -84.40504 | 1142 ft | 133 kts | 269° |
| 2026-05-07 05:38 | 33.64953 | -84.41588 | 1047 ft | 131 kts | 270° |
| 2026-05-07 05:38 | 33.64954 | -84.42548 | 1035 ft | 88 kts | 270° |
| 2026-05-07 05:38 | 33.64953 | -84.43019 | 1034 ft | 25 kts | 268° |
| 2026-05-07 05:39 | 33.64935 | -84.43148 | 1035 ft | 14 kts | 256° |
| 2026-05-07 05:39 | 33.64898 | -84.43257 | 1035 ft | 14 kts | 242° |
| 2026-05-07 05:39 | 33.64855 | -84.43357 | 1034 ft | 13 kts | 250° |
| 2026-05-07 05:39 | 33.64844 | -84.43467 | 1034 ft | 15 kts | 269° |
| 2026-05-07 05:40 | 33.64844 | -84.43617 | 1035 ft | 21 kts | 270° |
| 2026-05-07 05:40 | 33.64844 | -84.43790 | 1034 ft | 21 kts | 270° |
| 2026-05-07 05:40 | 33.64790 | -84.43942 | 1034 ft | 20 kts | 250° |
| 2026-05-07 05:40 | 33.64784 | -84.44106 | 1034 ft | 19 kts | 270° |
| 2026-05-07 05:41 | 33.64781 | -84.44265 | 1034 ft | 19 kts | 253° |
| 2026-05-07 05:41 | 33.64675 | -84.44336 | 1034 ft | 18 kts | 173° |
| 2026-05-07 05:41 | 33.64598 | -84.44300 | 1034 ft | 18 kts | 146° |
| 2026-05-07 05:41 | 33.64552 | -84.44127 | 1034 ft | 17 kts | 147° |
| 2026-05-07 05:42 | 33.64501 | -84.44021 | 1034 ft | 16 kts | 81° |
| 2026-05-07 05:42 | 33.64521 | -84.43854 | 1034 ft | 22 kts | 81° |
| 2026-05-07 05:42 | 33.64537 | -84.43733 | 1034 ft | 22 kts | 83° |
| 2026-05-07 05:42 | 33.64542 | -84.43553 | 1035 ft | 21 kts | 90° |
| 2026-05-07 05:43 | 33.64542 | -84.43378 | 1035 ft | 21 kts | 90° |
| 2026-05-07 05:43 | 33.64542 | -84.43208 | 1035 ft | 20 kts | 90° |
| 2026-05-07 05:43 | 33.64469 | -84.43100 | 1035 ft | 19 kts | 189° |
| 2026-05-07 05:43 | 33.64361 | -84.43133 | 1035 ft | 8 kts | 180° |
| 2026-05-07 05:44 | 33.64317 | -84.43134 | 1034 ft | 6 kts | 190° |
| 2026-05-07 05:44 | 33.64303 | -84.43177 | 1034 ft | 3 kts | 268° |
| 2026-05-07 05:44 | 33.64303 | -84.43196 | 1034 ft | 1 kts | 268° |
| 2026-05-07 05:44 | 33.64303 | -84.43204 | 1034 ft | 0 kts | 268° |